• Join FlightAware (Why Join?)
  • Login
  • US Flag 
03:21AM EDT


 

Airport Tracker/Info


-or-


 

Live Flight TrackerFlight Track Log ✈ JIA2234 ✈ 23-Jun-2013 ✈ KCLT - KCLE

Flight Track Log - Related Links

Times and Time Zones

All times are in EDT time to prevent confusion due to time zone crossing. See the JIA2234 flight status page for this flight to view local times or setup timezone preferences in your user account.

Time Position Orientation Groundspeed Altitude Reporting Facility
EDT Latitude Longitude Course Direction KTS MPH feet Rate Location/Type
04:23PM 35.1908 -80.9356 52° Northeast 155 178 1,500  Level Atlanta Center
04:24PM 35.1472 -80.9400 185° South 195 224 2,800 1,680 Climbing Atlanta Center
04:25PM 35.0978 -80.9722 208° Southwest 243 280 4,600 2,160 Climbing Atlanta Center
04:26PM 35.1221 -81.2167 North  Level FlightAware Approximate
04:26PM 35.0939 -81.0689 267° West 289 333 7,000  Level Atlanta Center
04:27PM 35.2389 -81.2167 North  Level FlightAware Approximate
04:27PM 35.1133 -81.0936 314° West 291 335 8,000  Level Atlanta Center
04:27PM 35.1636 -81.1069 348° North 300 345 9,500 2,460 Climbing Atlanta Center
04:28PM 35.3110 -81.1233 52° Northeast  Level FlightAware Approximate
04:28PM 35.1928 -81.0958 17° North 298 343 10,500  Level Atlanta Center
04:29PM 35.3829 -81.0103 52° Northeast  Level FlightAware Approximate
04:29PM 35.2753 -81.0622 18° North 329 379 12,500  Level Atlanta Center
04:30PM 35.3744 -81.0231 18° North 329 379 14,300 1,920 Climbing Atlanta Center
04:31PM 35.4686 -81.0347 354° North 337 388 16,400 1,860 Climbing Atlanta Center
04:32PM 35.5694 -81.0617 348° North 344 396 18,100 1,740 Climbing Atlanta Center
04:33PM 35.6617 -81.0814 350° North 363 418 19,900 1,680 Climbing Atlanta Center
04:34PM 35.7647 -81.1111 347° North 374 430 21,500 1,560 Climbing Atlanta Center
04:35PM 35.8717 -81.1353 350° North 374 430 23,100 1,560 Climbing Atlanta Center
04:36PM 35.9850 -81.1647 348° North 374 430 24,700 1,440 Climbing Atlanta Center
04:37PM 36.0942 -81.1917 349° North 380 437 26,000 1,140 Climbing Atlanta Center
04:38PM 36.2075 -81.2211 348° North 394 453 27,000 960 Climbing Atlanta Center
04:39PM 36.3247 -81.2478 350° North 417 480 28,000 1,080 Climbing Atlanta Center
04:40PM 36.4422 -81.2772 349° North 422 486 29,200 1,200 Climbing Atlanta Center
04:41PM 36.5597 -81.3069 349° North 428 493 30,400 1,020 Climbing Atlanta Center
04:42PM 36.6814 -81.3364 349° North 436 502 31,300 780 Climbing Atlanta Center
04:43PM 36.7967 -81.3686 347° North 436 502 32,000 300 Climbing Atlanta Center
04:44PM 36.9203 -81.4008 348° North 436 502 32,000  Level Atlanta Center
04:45PM 37.0869 -81.4408 349° North 454 522 32,000  Level Indianapolis Center
04:46PM 37.2136 -81.4739 348° North 462 532 32,000  Level Indianapolis Center
04:47PM 37.3467 -81.5072 349° North 481 554 32,000  Level Indianapolis Center
04:48PM 37.4794 -81.5431 348° North 488 562 32,000  Level Indianapolis Center
04:49PM 37.6336 -81.5814 349° North 486 559 32,000  Level Indianapolis Center
04:50PM 37.7656 -81.6167 348° North 485 558 32,000  Level Indianapolis Center
04:51PM 37.8878 -81.6475 349° North 485 558 32,000  Level Indianapolis Center
04:52PM 38.0203 -81.6822 348° North 482 555 32,000  Level Indianapolis Center
04:53PM 38.1528 -81.7158 349° North 483 556 32,000  Level Indianapolis Center
04:54PM 38.3111 -81.7592 348° North 483 556 32,000  Level Indianapolis Center
04:55PM 38.4450 -81.7861 351° North 486 559 32,000  Level Indianapolis Center
04:57PM 38.5814 -81.8086 353° North 486 559 32,000  Level Indianapolis Center
04:58PM 38.7183 -81.8322 352° North 486 559 32,000  Level Indianapolis Center
04:59PM 38.8533 -81.8536 353° North 484 557 32,000 -300 Level Indianapolis Center
05:00PM 38.9892 -81.8775 352° North 485 558 31,400 -1,080 Descending Indianapolis Center
05:01PM 39.1289 -81.9011 353° North 482 555 29,800 -1,500 Descending Indianapolis Center
05:02PM 39.2556 -81.9194 354° North 479 551 28,400 -1,440 Descending Indianapolis Center
05:03PM 39.3817 -81.9419 352° North 458 527 26,900 -1,680 Descending Indianapolis Center
05:04PM 39.5292 -81.9675 352° North 444 511 25,000 -1,440 Descending Indianapolis Center
05:05PM 39.6467 -81.9881 352° North 429 494 24,000 -1,020 Descending Indianapolis Center
05:06PM 39.7642 -82.0069 353° North 411 473 23,000 -1,320 Descending Indianapolis Center
05:07PM 39.8781 -82.0264 353° North 411 473 21,300 -1,500 Descending Indianapolis Center
05:08PM 39.9881 -82.0444 353° North 398 458 20,000 -1,020 Descending Indianapolis Center
05:09PM 40.0967 -82.0633 352° North 391 450 19,300 -1,140 Descending Indianapolis Center
05:10PM 40.2033 -82.0831 352° North 385 443 17,700 -1,800 Descending Indianapolis Center
05:11PM 40.3164 -82.1022 353° North 364 419 15,600 -1,320 Descending Indianapolis Center
05:12PM 40.4158 -82.1178 353° North 358 412 15,000 -300 Descending Indianapolis Center
05:13PM 40.5061 -82.0758 19° North 358 412 15,100 -360 Climbing Indianapolis Center
05:14PM 40.5861 -82.0008 35° Northeast 351 404 14,300 -1,140 Descending Indianapolis Center
05:15PM 40.6447 -81.9431 37° Northeast 340 391 13,200 -1,380 Descending Cleveland Center
05:15PM 40.6828 -81.9028 39° Northeast 334 384 12,600 -1,200 Descending Cleveland Center
05:16PM 40.7481 -81.8383 37° Northeast 326 375 11,400 -1,560 Descending Cleveland Center
05:17PM 40.7944 -81.7953 35° Northeast 324 373 10,200 -900 Descending Cleveland Center
05:18PM 40.8639 -81.7253 37° Northeast 319 367 10,000 -120 Descending Cleveland Center
05:19PM 40.9356 -81.6550 37° Northeast 321 369 10,000  Level Cleveland Center
05:20PM 41.0208 -81.6675 354° North 293 337 10,000 -600 Level Cleveland Center
05:21PM 41.0956 -81.7100 337° Northwest 291 335 8,800 -1,440 Descending Cleveland Center
05:22PM 41.1725 -81.7250 352° North 285 328 7,200 -1,080 Descending Cleveland Center
05:23PM 41.2456 -81.7181 North 242 278 6,700 -1,080 Descending Cleveland Center
05:24PM 41.3103 -81.7000 12° North 240 276 5,100 -1,320 Descending Cleveland Center
05:25PM 41.3731 -81.6844 11° North 222 255 4,100 -1,080 Descending Cleveland Center
05:26PM 41.4378 -81.6689 10° North 214 246 3,000 -1,140 Descending Cleveland Center